Pagina principale
METAR-TAF:

METAR-TAF

Aeroporti :

Schwäbisch Hall, Germania

latitudine: 49-07-06N, longitudine: 9-47-02E, altezza: 398 m

Osservazione

Il bollettino è stato emesso 35 minuti fa, alle 06:20 UTC
Vento 5 kt da nord
Temperature 23°C
Umidità 83%
Pressione 1024 hPa
Visibilità 10 km o più
nessuna nube inferiore a 1500 m e nessun cumulonembo

METAR: EDTY 270620Z 36005KT CAVOK 23/20 Q1024

Ora: 08:55 (06:55 UTC)

Previsione

Il bollettino è stato emesso 1 ora e 55 minuti fa, alle 05:00 UTC
Previsione valida dal 27 alle 06 UTC al 27 alle 15 UTC
Vento 5 kt da nord
Visibilità 10 km o più
nessuna nube inferiore a 1500 m e nessun cumulonembo
Temporaneamente
dal 27 alle 12 UTC al 27 alle 15 UTC
Vento 10 kt da nord/nord-ovest

TAF: EDTY 270500Z 2706/2715 35005KT CAVOK TEMPO 2712/2715 34010KT

Osservazioni e previsioni meteorologiche di più di 4000 aeroporti (messaggi METAR e TAF).

Le stazioni disponibili sono rappresentate dai dischi gialli e rossi sulla carta.

Puntare il mouse per vedere il nome della stazione.

Clicca sopra per visualizzare le osservazioni e previsioni meteorologiche.

Per cambiare la mappa : fare clic sui pulsanti verdi con una croce nera per ingrandire, il pulsante verde con un trattino per diminuire, o sulla freccia verde per le mappe adiacenti.


METAR-TAF: